Time;durP1;ratioP1;P1;durP2;ratioP2;P2;SDS_P1;SDS_P2;PMS_P1;PMS_P2;Temp;Humidity;BMP_temperature;BMP_pressure;BME280_temperature;BME280_humidity;BME280_pressure;Samples;Min_cycle;Max_cycle;Signal;HPM_P1;HPM_P2
2023/08/22 00:00:58;;;;;;;;;;;22.70;74.80;;;;;;5051989;28;910;-69
2023/08/22 00:03:23;;;;;;;;;;;22.60;74.80;;;;;;5051426;28;829;-68
2023/08/22 00:05:49;;;;;;;;;;;22.60;74.70;;;;;;5051800;28;871;-69
2023/08/22 00:08:14;;;;;;;;;;;22.70;74.80;;;;;;5051025;28;1970;-68
2023/08/22 00:10:40;;;;;;;;;;;22.70;74.80;;;;;;5051924;28;839;-69
2023/08/22 00:13:06;;;;;;;;;;;22.70;75.60;;;;;;5050122;28;863;-69
2023/08/22 00:15:31;;;;;;;;;;;22.70;74.80;;;;;;5051729;28;835;-69
2023/08/22 00:17:57;;;;;;;;;;;22.70;74.80;;;;;;5043728;28;1661;-69
2023/08/22 00:20:23;;;;;;;;;;;22.70;74.80;;;;;;5051670;28;1312;-69
2023/08/22 00:22:49;;;;;;;;;;;22.70;74.90;;;;;;5051549;28;824;-69
2023/08/22 00:25:14;;;;;;;;;;;22.70;74.80;;;;;;5051339;28;927;-69
2023/08/22 00:27:39;;;;;;;;;;;22.70;74.80;;;;;;5051037;28;1910;-69
2023/08/22 00:30:05;;;;;;;;;;;22.70;74.80;;;;;;5050689;28;866;-69
2023/08/22 00:32:31;;;;;;;;;;;22.70;74.80;;;;;;5051473;28;854;-69
2023/08/22 00:34:56;;;;;;;;;;;22.70;74.80;;;;;;5045117;28;946;-69
2023/08/22 00:37:22;;;;;;;;;;;22.70;74.80;;;;;;5051416;28;899;-68
2023/08/22 00:39:47;;;;;;;;;;;22.70;74.80;;;;;;5050469;28;1314;-68
2023/08/22 00:42:13;;;;;;;;;;;22.70;74.80;;;;;;5050967;28;866;-68
2023/08/22 00:44:38;;;;;;;;;;;22.70;74.80;;;;;;5046965;28;876;-68
2023/08/22 00:47:04;;;;;;;;;;;22.70;74.80;;;;;;5050957;28;1971;-68
2023/08/22 00:49:29;;;;;;;;;;;22.70;74.70;;;;;;5050391;28;1275;-68
2023/08/22 00:51:56;;;;;;;;;;;22.70;74.80;;;;;;5040592;28;879;-67
2023/08/22 00:54:21;;;;;;;;;;;22.70;74.70;;;;;;5045989;28;1018;-67
2023/08/22 00:56:47;;;;;;;;;;;22.70;74.70;;;;;;5048643;28;903;-67
2023/08/22 00:59:12;;;;;;;;;;;22.70;74.70;;;;;;5043629;28;1283;-67
2023/08/22 01:01:38;;;;;;;;;;;22.70;74.70;;;;;;5050706;28;874;-68
2023/08/22 01:04:03;;;;;;;;;;;22.70;74.70;;;;;;5050247;28;916;-67
2023/08/22 01:06:29;;;;;;;;;;;22.70;74.80;;;;;;5050797;28;861;-68
2023/08/22 01:08:57;;;;;;;;;;;22.60;74.70;;;;;;5049309;28;1895;-67
2023/08/22 01:11:41;;;;;;;;;;;22.70;74.70;;;;;;5046858;28;1029;-66
2023/08/22 01:14:07;;;;;;;;;;;22.70;74.70;;;;;;5044454;28;884;-67
2023/08/22 01:16:33;;;;;;;;;;;22.70;74.70;;;;;;5049601;28;864;-67
2023/08/22 01:19:01;;;;;;;;;;;22.70;74.70;;;;;;5043724;28;1219;-67
2023/08/22 01:21:26;;;;;;;;;;;22.70;74.70;;;;;;5044649;28;868;-67
2023/08/22 01:23:52;;;;;;;;;;;22.70;74.80;;;;;;5043298;28;892;-67
2023/08/22 01:26:17;;;;;;;;;;;22.60;74.70;;;;;;5050162;28;968;-67
2023/08/22 01:28:44;;;;;;;;;;;22.70;74.70;;;;;;5043905;28;2004;-67
2023/08/22 01:31:28;;;;;;;;;;;22.60;74.70;;;;;;5050070;28;946;-67
2023/08/22 01:33:56;;;;;;;;;;;22.70;74.80;;;;;;5050132;28;1015;-67
2023/08/22 01:36:21;;;;;;;;;;;22.70;74.70;;;;;;5043118;28;1010;-67
2023/08/22 01:38:47;;;;;;;;;;;22.70;74.80;;;;;;5044520;28;1347;-69
2023/08/22 01:41:13;;;;;;;;;;;22.70;74.80;;;;;;5044168;28;919;-68
2023/08/22 01:43:38;;;;;;;;;;;22.70;74.80;;;;;;5049090;28;1140;-69
2023/08/22 01:46:05;;;;;;;;;;;22.70;74.80;;;;;;5045543;28;855;-68
2023/08/22 01:48:30;;;;;;;;;;;22.70;74.80;;;;;;5048612;28;1906;-68
2023/08/22 01:50:56;;;;;;;;;;;22.70;74.80;;;;;;5049798;28;842;-68
2023/08/22 01:53:21;;;;;;;;;;;22.70;74.80;;;;;;5049846;28;884;-68
2023/08/22 01:55:47;;;;;;;;;;;22.70;74.80;;;;;;5049691;28;846;-69
2023/08/22 01:58:14;;;;;;;;;;;22.60;74.80;;;;;;5048591;28;1257;-68
2023/08/22 02:00:39;;;;;;;;;;;22.70;74.80;;;;;;5049285;28;829;-68
2023/08/22 02:03:05;;;;;;;;;;;22.70;74.80;;;;;;5049951;28;869;-68
2023/08/22 02:05:30;;;;;;;;;;;22.60;74.80;;;;;;5048197;28;1076;-68
2023/08/22 02:07:55;;;;;;;;;;;22.70;74.80;;;;;;5049009;28;1969;-68
2023/08/22 02:10:21;;;;;;;;;;;22.60;74.80;;;;;;5049132;28;849;-68
2023/08/22 02:12:46;;;;;;;;;;;22.70;74.80;;;;;;5049547;28;888;-68
2023/08/22 02:15:12;;;;;;;;;;;22.70;74.90;;;;;;5049426;28;872;-68
2023/08/22 02:17:38;;;;;;;;;;;22.70;74.80;;;;;;5049538;28;1244;-68
2023/08/22 02:20:04;;;;;;;;;;;22.70;74.80;;;;;;5048669;28;1029;-68
2023/08/22 02:22:30;;;;;;;;;;;22.70;74.80;;;;;;5052573;28;876;-68
2023/08/22 02:24:55;;;;;;;;;;;22.70;74.80;;;;;;5043325;28;999;-68
2023/08/22 02:27:21;;;;;;;;;;;22.70;74.80;;;;;;5047814;28;1959;-68
2023/08/22 02:29:46;;;;;;;;;;;22.70;74.80;;;;;;5054005;28;1556;-68
2023/08/22 02:32:12;;;;;;;;;;;22.70;74.80;;;;;;5053576;28;820;-67
2023/08/22 02:34:37;;;;;;;;;;;22.70;74.80;;;;;;5053384;28;842;-68
2023/08/22 02:37:03;;;;;;;;;;;22.70;74.80;;;;;;5053560;28;816;-68
2023/08/22 02:39:28;;;;;;;;;;;22.70;74.80;;;;;;5046600;28;1305;-68
2023/08/22 02:41:54;;;;;;;;;;;22.60;74.70;;;;;;5053594;28;855;-68
2023/08/22 02:44:19;;;;;;;;;;;22.60;74.70;;;;;;5053515;28;843;-68
2023/08/22 02:46:45;;;;;;;;;;;22.70;74.80;;;;;;5053065;28;946;-68
2023/08/22 02:49:11;;;;;;;;;;;22.70;74.80;;;;;;5052256;28;1902;-68
2023/08/22 02:51:36;;;;;;;;;;;22.70;74.80;;;;;;5050946;28;1335;-68
2023/08/22 02:54:02;;;;;;;;;;;22.70;74.80;;;;;;5052647;28;863;-68
2023/08/22 02:56:27;;;;;;;;;;;22.70;74.80;;;;;;5053186;28;825;-68
2023/08/22 02:58:53;;;;;;;;;;;22.70;74.80;;;;;;5052044;28;1284;-68
2023/08/22 03:01:18;;;;;;;;;;;22.70;74.80;;;;;;5048434;28;898;-68
2023/08/22 03:03:49;;;;;;;;;;;22.70;74.80;;;;;;5052968;28;891;-68
2023/08/22 03:06:15;;;;;;;;;;;22.70;74.80;;;;;;5053190;28;855;-68
2023/08/22 03:08:40;;;;;;;;;;;22.70;74.80;;;;;;5051915;28;1913;-68
2023/08/22 03:11:05;;;;;;;;;;;22.70;74.80;;;;;;5053020;28;839;-68
2023/08/22 03:13:31;;;;;;;;;;;22.60;74.70;;;;;;5052509;28;914;-68
2023/08/22 03:15:58;;;;;;;;;;;22.70;74.80;;;;;;5052684;28;812;-68
2023/08/22 03:18:24;;;;;;;;;;;22.70;74.80;;;;;;5051968;28;1267;-68
2023/08/22 03:20:49;;;;;;;;;;;22.70;74.80;;;;;;5052562;28;851;-68
2023/08/22 03:23:15;;;;;;;;;;;22.70;74.80;;;;;;5052528;28;825;-67
2023/08/22 03:25:40;;;;;;;;;;;22.60;74.80;;;;;;5052441;28;927;-68
2023/08/22 03:28:06;;;;;;;;;;;22.70;74.80;;;;;;5051664;28;1961;-68
2023/08/22 03:30:31;;;;;;;;;;;22.70;74.80;;;;;;5052050;28;935;-67
2023/08/22 03:32:57;;;;;;;;;;;22.70;74.80;;;;;;5051862;28;938;-67
2023/08/22 03:35:22;;;;;;;;;;;22.70;74.80;;;;;;5052328;28;902;-67
2023/08/22 03:37:48;;;;;;;;;;;22.70;74.80;;;;;;5051941;28;1270;-67
2023/08/22 03:40:13;;;;;;;;;;;22.70;74.80;;;;;;5052021;28;928;-68
2023/08/22 03:42:39;;;;;;;;;;;22.70;74.80;;;;;;5052338;28;1048;-68
2023/08/22 03:45:04;;;;;;;;;;;22.70;74.80;;;;;;5052057;28;899;-68
2023/08/22 03:47:30;;;;;;;;;;;22.70;74.80;;;;;;5051767;28;1938;-68
2023/08/22 03:49:55;;;;;;;;;;;22.60;74.80;;;;;;5053372;28;1387;-67
2023/08/22 03:52:21;;;;;;;;;;;22.70;74.90;;;;;;5051959;28;875;-67
2023/08/22 03:54:46;;;;;;;;;;;22.60;74.70;;;;;;5052003;28;850;-68
2023/08/22 03:57:12;;;;;;;;;;;22.70;74.80;;;;;;5052348;28;891;-69
2023/08/22 03:59:37;;;;;;;;;;;22.70;74.80;;;;;;5052792;28;1284;-69
2023/08/22 04:02:02;;;;;;;;;;;22.70;74.80;;;;;;5052861;28;820;-69
2023/08/22 04:04:28;;;;;;;;;;;22.70;74.80;;;;;;5052954;28;932;-68
2023/08/22 04:06:54;;;;;;;;;;;22.70;74.80;;;;;;5043270;28;943;-68
2023/08/22 04:09:19;;;;;;;;;;;22.60;74.80;;;;;;5046681;28;1970;-69
2023/08/22 04:11:45;;;;;;;;;;;22.70;74.90;;;;;;5052974;28;994;-69
2023/08/22 04:14:10;;;;;;;;;;;22.70;74.90;;;;;;5053512;28;808;-69
2023/08/22 04:16:35;;;;;;;;;;;22.70;74.80;;;;;;5053971;28;765;-69
2023/08/22 04:19:01;;;;;;;;;;;22.70;74.90;;;;;;5051907;28;1320;-69
2023/08/22 04:21:26;;;;;;;;;;;22.60;74.80;;;;;;5053048;28;823;-67
2023/08/22 04:23:52;;;;;;;;;;;22.60;74.80;;;;;;5052758;28;835;-68
2023/08/22 04:26:17;;;;;;;;;;;22.60;74.90;;;;;;5052699;28;895;-69
2023/08/22 04:28:43;;;;;;;;;;;22.70;74.90;;;;;;5052192;28;1902;-68
2023/08/22 04:31:08;;;;;;;;;;;22.70;74.90;;;;;;5051207;28;1303;-68
2023/08/22 04:33:34;;;;;;;;;;;22.70;74.90;;;;;;5052327;28;768;-68
2023/08/22 04:35:59;;;;;;;;;;;22.70;74.90;;;;;;5052539;28;891;-68
2023/08/22 04:38:25;;;;;;;;;;;22.70;74.90;;;;;;5051827;28;1276;-68
2023/08/22 04:40:50;;;;;;;;;;;22.70;74.90;;;;;;5052202;28;914;-68
2023/08/22 04:43:16;;;;;;;;;;;22.60;74.90;;;;;;5051347;28;828;-68
2023/08/22 04:45:41;;;;;;;;;;;22.70;74.90;;;;;;5051333;28;887;-68
2023/08/22 04:48:07;;;;;;;;;;;22.70;74.90;;;;;;5046455;28;1965;-68
2023/08/22 04:50:33;;;;;;;;;;;22.70;74.90;;;;;;5052464;28;887;-68
2023/08/22 04:52:58;;;;;;;;;;;22.70;74.90;;;;;;5052332;28;803;-68
2023/08/22 04:55:24;;;;;;;;;;;22.70;74.90;;;;;;5052110;28;836;-68
2023/08/22 04:57:49;;;;;;;;;;;22.70;74.90;;;;;;5051266;28;1608;-68
2023/08/22 05:00:16;;;;;;;;;;;22.70;74.90;;;;;;5051955;28;1010;-68
2023/08/22 05:02:42;;;;;;;;;;;22.70;74.90;;;;;;5043800;28;911;-68
2023/08/22 05:05:09;;;;;;;;;;;22.70;74.90;;;;;;5051544;28;879;-68
2023/08/22 05:07:36;;;;;;;;;;;22.70;75.00;;;;;;5051120;28;1959;-68
2023/08/22 05:10:02;;;;;;;;;;;22.70;74.90;;;;;;5050961;28;1251;-68
2023/08/22 05:12:30;;;;;;;;;;;22.70;74.90;;;;;;5051486;28;920;-68
2023/08/22 05:14:55;;;;;;;;;;;22.70;74.90;;;;;;5051067;28;820;-70
2023/08/22 05:17:21;;;;;;;;;;;22.70;74.90;;;;;;5051003;28;796;-70
2023/08/22 05:19:46;;;;;;;;;;;22.70;74.30;;;;;;5050175;28;1305;-70
2023/08/22 05:22:12;;;;;;;;;;;22.70;72.60;;;;;;5049755;28;840;-70
2023/08/22 05:24:37;;;;;;;;;;;22.70;72.40;;;;;;5050835;28;891;-70
2023/08/22 05:27:03;;;;;;;;;;;22.60;71.70;;;;;;5050744;28;1312;-70
2023/08/22 05:29:28;;;;;;;;;;;22.70;71.60;;;;;;5049765;28;1918;-70
2023/08/22 05:31:54;;;;;;;;;;;22.70;71.30;;;;;;5050541;28;843;-70
2023/08/22 05:34:19;;;;;;;;;;;22.70;71.80;;;;;;5040512;28;2108;-69
2023/08/22 05:36:45;;;;;;;;;;;22.60;71.60;;;;;;5048384;28;1931;-69
2023/08/22 05:39:13;;;;;;;;;;;22.60;71.60;;;;;;5048533;28;1371;-68
2023/08/22 05:41:38;;;;;;;;;;;22.60;71.10;;;;;;5049496;28;1317;-68
2023/08/22 05:44:04;;;;;;;;;;;22.60;71.00;;;;;;5050464;28;1002;-69
2023/08/22 05:46:29;;;;;;;;;;;22.60;70.80;;;;;;5051033;28;804;-69
2023/08/22 05:48:55;;;;;;;;;;;22.60;70.40;;;;;;5050381;28;1898;-69
2023/08/22 05:51:21;;;;;;;;;;;22.60;70.10;;;;;;5050373;28;879;-69
2023/08/22 05:53:46;;;;;;;;;;;22.60;69.80;;;;;;5041227;28;849;-69
2023/08/22 05:56:12;;;;;;;;;;;22.60;69.70;;;;;;5049785;28;821;-70
2023/08/22 05:58:37;;;;;;;;;;;22.60;69.40;;;;;;5050235;28;1340;-69
2023/08/22 06:01:06;;;;;;;;;;;22.60;69.30;;;;;;5051268;28;975;-70
2023/08/22 06:03:31;;;;;;;;;;;22.60;69.10;;;;;;5048939;28;796;-70
2023/08/22 06:05:57;;;;;;;;;;;22.60;69.40;;;;;;5049762;28;891;-70
2023/08/22 06:08:22;;;;;;;;;;;22.60;69.10;;;;;;5052918;28;1918;-70
2023/08/22 06:10:48;;;;;;;;;;;22.60;68.70;;;;;;5049453;28;783;-69
2023/08/22 06:13:14;;;;;;;;;;;22.60;68.70;;;;;;5049346;28;947;-69
2023/08/22 06:15:40;;;;;;;;;;;22.60;68.80;;;;;;5050042;28;934;-69
2023/08/22 06:18:05;;;;;;;;;;;22.60;68.80;;;;;;5048365;28;1860;-68
2023/08/22 06:20:31;;;;;;;;;;;22.60;68.60;;;;;;5048775;28;1438;-71
2023/08/22 06:22:56;;;;;;;;;;;22.60;68.30;;;;;;5048833;28;1049;-68
2023/08/22 06:25:21;;;;;;;;;;;22.60;68.30;;;;;;5048488;28;792;-69
2023/08/22 06:27:47;;;;;;;;;;;22.60;68.40;;;;;;5048061;28;1973;-69
2023/08/22 06:30:13;;;;;;;;;;;22.60;68.50;;;;;;5048722;28;859;-71
2023/08/22 06:32:38;;;;;;;;;;;22.60;67.80;;;;;;5043606;28;851;-70
2023/08/22 06:35:04;;;;;;;;;;;22.60;67.40;;;;;;5048715;28;1734;-67
2023/08/22 06:37:29;;;;;;;;;;;22.60;67.00;;;;;;5049755;28;828;-69
2023/08/22 06:39:55;;;;;;;;;;;22.60;66.80;;;;;;5047912;28;1271;-69
2023/08/22 06:42:20;;;;;;;;;;;22.60;66.80;;;;;;5048950;28;1260;-69
2023/08/22 06:44:46;;;;;;;;;;;22.50;66.80;;;;;;5049810;28;811;-70
2023/08/22 06:47:11;;;;;;;;;;;22.50;67.00;;;;;;5044876;28;956;-70
2023/08/22 06:49:37;;;;;;;;;;;22.50;66.70;;;;;;5048765;28;1890;-69
2023/08/22 06:52:02;;;;;;;;;;;22.50;66.70;;;;;;5049495;28;816;-70
2023/08/22 06:54:28;;;;;;;;;;;22.50;66.70;;;;;;5049764;28;923;-69
2023/08/22 06:56:53;;;;;;;;;;;22.50;66.70;;;;;;5049811;28;887;-69
2023/08/22 06:59:19;;;;;;;;;;;22.50;66.40;;;;;;5048466;28;1386;-69
2023/08/22 07:01:44;;;;;;;;;;;22.50;66.80;;;;;;5049230;28;792;-69
2023/08/22 07:04:10;;;;;;;;;;;22.50;66.80;;;;;;5048207;28;1473;-69
2023/08/22 07:06:35;;;;;;;;;;;22.50;66.80;;;;;;5044310;28;913;-69
2023/08/22 07:09:00;;;;;;;;;;;22.50;67.20;;;;;;5046036;28;1969;-69
2023/08/22 07:11:26;;;;;;;;;;;22.50;67.30;;;;;;5052879;28;897;-69
2023/08/22 07:13:51;;;;;;;;;;;22.50;67.30;;;;;;5052989;28;905;-69
2023/08/22 07:16:17;;;;;;;;;;;22.50;67.30;;;;;;5053304;28;834;-69
2023/08/22 07:18:42;;;;;;;;;;;22.50;67.30;;;;;;5052253;28;1282;-69
2023/08/22 07:21:08;;;;;;;;;;;22.50;67.40;;;;;;5052615;28;930;-69
2023/08/22 07:23:33;;;;;;;;;;;22.50;67.50;;;;;;5051900;28;825;-69
2023/08/22 07:25:59;;;;;;;;;;;22.50;67.60;;;;;;5052929;28;877;-69
2023/08/22 07:28:24;;;;;;;;;;;22.50;67.70;;;;;;5050724;28;1998;-69
2023/08/22 07:30:50;;;;;;;;;;;22.50;67.40;;;;;;5052797;28;1374;-69
2023/08/22 07:33:15;;;;;;;;;;;22.50;67.40;;;;;;5052533;28;1393;-69
2023/08/22 07:35:41;;;;;;;;;;;22.50;67.40;;;;;;5052850;28;1319;-69
2023/08/22 07:38:06;;;;;;;;;;;22.50;67.20;;;;;;5045929;28;1365;-69
2023/08/22 07:40:32;;;;;;;;;;;22.50;66.70;;;;;;5052626;28;870;-69
2023/08/22 07:42:59;;;;;;;;;;;22.50;66.70;;;;;;5045944;28;942;-69
2023/08/22 07:45:24;;;;;;;;;;;22.60;66.70;;;;;;5052762;28;805;-68
2023/08/22 07:47:51;;;;;;;;;;;22.60;66.50;;;;;;5053009;28;1906;-68
2023/08/22 07:50:17;;;;;;;;;;;22.60;66.30;;;;;;5052748;28;868;-69
2023/08/22 07:52:42;;;;;;;;;;;22.50;66.40;;;;;;5052111;28;836;-69
2023/08/22 07:55:08;;;;;;;;;;;22.60;65.80;;;;;;5052327;28;917;-69
2023/08/22 07:57:33;;;;;;;;;;;22.60;66.40;;;;;;5052301;28;857;-68
2023/08/22 08:00:00;;;;;;;;;;;22.50;66.50;;;;;;5050853;28;2015;-69
2023/08/22 08:02:26;;;;;;;;;;;22.60;66.70;;;;;;5065808;28;1319;-68
2023/08/22 08:04:51;;;;;;;;;;;22.60;66.70;;;;;;5051870;28;1006;-68
2023/08/22 08:07:17;;;;;;;;;;;22.60;66.80;;;;;;5051449;28;1898;-68
2023/08/22 08:09:42;;;;;;;;;;;22.60;67.00;;;;;;5050759;28;1841;-68
2023/08/22 08:12:08;;;;;;;;;;;22.60;66.80;;;;;;5051404;28;1206;-68
2023/08/22 08:14:33;;;;;;;;;;;22.60;66.70;;;;;;5050915;28;1514;-68
2023/08/22 08:16:59;;;;;;;;;;;22.60;66.70;;;;;;5051964;28;1636;-67
2023/08/22 08:19:24;;;;;;;;;;;22.60;66.60;;;;;;5045758;28;1329;-68
2023/08/22 08:21:50;;;;;;;;;;;22.60;66.40;;;;;;5051603;28;882;-68
2023/08/22 08:24:16;;;;;;;;;;;22.60;66.80;;;;;;5044976;28;955;-68
2023/08/22 08:26:41;;;;;;;;;;;22.60;66.80;;;;;;5050859;28;1314;-68
2023/08/22 08:29:07;;;;;;;;;;;22.60;66.90;;;;;;5042186;28;1914;-68
2023/08/22 08:31:32;;;;;;;;;;;22.60;66.30;;;;;;5051298;28;859;-68
2023/08/22 08:33:58;;;;;;;;;;;22.60;66.60;;;;;;5045460;28;1331;-68
2023/08/22 08:36:23;;;;;;;;;;;22.60;66.60;;;;;;5050450;28;855;-68
2023/08/22 08:38:49;;;;;;;;;;;22.60;66.50;;;;;;5050052;28;1241;-68
2023/08/22 08:41:14;;;;;;;;;;;22.60;66.70;;;;;;5050632;28;923;-68
2023/08/22 08:43:40;;;;;;;;;;;22.60;66.50;;;;;;5046422;28;926;-68
2023/08/22 08:46:05;;;;;;;;;;;22.60;66.00;;;;;;5042244;28;815;-68
2023/08/22 08:48:31;;;;;;;;;;;22.60;65.90;;;;;;5045040;28;1898;-68
2023/08/22 08:50:58;;;;;;;;;;;22.60;66.20;;;;;;5036261;28;1308;-68
2023/08/22 08:53:24;;;;;;;;;;;22.60;66.50;;;;;;5041052;28;840;-68
2023/08/22 08:55:49;;;;;;;;;;;22.60;65.70;;;;;;5048313;28;879;-68
2023/08/22 08:58:14;;;;;;;;;;;22.70;66.10;;;;;;5049754;28;1252;-68
2023/08/22 09:00:40;;;;;;;;;;;22.60;66.00;;;;;;5042746;28;2137;-68
2023/08/22 09:03:05;;;;;;;;;;;22.60;66.20;;;;;;5050572;28;1237;-68
2023/08/22 09:05:31;;;;;;;;;;;22.70;66.30;;;;;;5046630;28;1562;-68
2023/08/22 09:08:10;;;;;;;;;;;22.70;66.00;;;;;;5034516;28;1914;-68
2023/08/22 09:10:35;;;;;;;;;;;22.70;65.90;;;;;;5046119;28;872;-68
2023/08/22 09:13:04;;;;;;;;;;;22.70;66.30;;;;;;5050166;28;2303;-68
2023/08/22 09:15:29;;;;;;;;;;;22.70;66.40;;;;;;5048875;28;1857;-68
2023/08/22 09:17:55;;;;;;;;;;;22.70;66.30;;;;;;5049521;28;1951;-69
2023/08/22 09:20:20;;;;;;;;;;;22.70;66.10;;;;;;5049383;28;1337;-67
2023/08/22 09:22:46;;;;;;;;;;;22.70;65.60;;;;;;5049766;28;2409;-68
2023/08/22 09:25:11;;;;;;;;;;;22.70;66.30;;;;;;5048333;28;1590;-68
2023/08/22 09:27:37;;;;;;;;;;;22.70;66.40;;;;;;5048855;28;1910;-68
2023/08/22 09:30:06;;;;;;;;;;;22.70;66.60;;;;;;5049149;28;1384;-68
2023/08/22 09:32:31;;;;;;;;;;;22.70;66.70;;;;;;5049538;28;1616;-68
2023/08/22 09:34:58;;;;;;;;;;;22.70;66.30;;;;;;5042120;28;863;-68
2023/08/22 09:37:34;;;;;;;;;;;22.70;67.50;;;;;;5044382;28;871;-68
2023/08/22 09:40:00;;;;;;;;;;;22.70;66.20;;;;;;5047986;28;1284;-68
2023/08/22 09:42:31;;;;;;;;;;;22.80;66.30;;;;;;5045254;28;870;-68
2023/08/22 09:44:57;;;;;;;;;;;22.80;65.50;;;;;;5049771;28;919;-67
2023/08/22 09:47:27;;;;;;;;;;;22.80;65.40;;;;;;5046430;28;1894;-68
2023/08/22 09:49:52;;;;;;;;;;;22.80;66.10;;;;;;5045075;28;1279;-68
2023/08/22 09:52:18;;;;;;;;;;;22.80;65.70;;;;;;5045564;28;899;-68
2023/08/22 09:54:43;;;;;;;;;;;22.80;65.30;;;;;;5049453;28;912;-68
2023/08/22 09:57:09;;;;;;;;;;;22.80;64.50;;;;;;5042861;28;982;-68
2023/08/22 09:59:34;;;;;;;;;;;22.80;65.60;;;;;;5043173;28;1290;-68
2023/08/22 10:02:00;;;;;;;;;;;22.80;65.50;;;;;;5050520;28;1002;-69
2023/08/22 10:04:25;;;;;;;;;;;22.80;65.70;;;;;;5044270;28;869;-68
2023/08/22 10:06:51;;;;;;;;;;;22.80;65.70;;;;;;5044750;28;888;-68
2023/08/22 10:09:16;;;;;;;;;;;22.80;65.50;;;;;;5042173;28;1942;-68
2023/08/22 10:11:43;;;;;;;;;;;22.80;65.00;;;;;;5050138;28;840;-68
2023/08/22 10:14:12;;;;;;;;;;;22.80;64.90;;;;;;5044315;28;2826;-68
2023/08/22 10:16:38;;;;;;;;;;;22.80;65.30;;;;;;5049140;28;1881;-68
2023/08/22 10:19:03;;;;;;;;;;;22.80;64.50;;;;;;5048730;28;1351;-68
2023/08/22 10:21:33;;;;;;;;;;;22.90;64.60;;;;;;5043307;28;1422;-69
2023/08/22 10:23:59;;;;;;;;;;;22.80;63.90;;;;;;5044041;28;1492;-68
2023/08/22 10:26:28;;;;;;;;;;;22.90;63.70;;;;;;5049740;28;1322;-69
2023/08/22 10:29:20;;;;;;;;;;;22.80;64.10;;;;;;5048660;28;1910;-68
2023/08/22 10:32:15;;;;;;;;;;;22.80;64.60;;;;;;5047000;28;1009;-69
2023/08/22 10:34:41;;;;;;;;;;;22.80;65.30;;;;;;5044197;28;1148;-69
2023/08/22 10:37:17;;;;;;;;;;;22.90;65.70;;;;;;5053133;28;1383;-68
2023/08/22 10:39:46;;;;;;;;;;;22.80;65.20;;;;;;5048683;28;1265;-68
2023/08/22 10:42:18;;;;;;;;;;;22.80;64.90;;;;;;5046113;28;962;-69
2023/08/22 10:44:47;;;;;;;;;;;22.80;66.10;;;;;;5044215;28;957;-69
2023/08/22 10:47:16;;;;;;;;;;;22.80;66.70;;;;;;5047937;28;916;-68
2023/08/22 10:49:42;;;;;;;;;;;22.80;66.40;;;;;;5052437;28;1971;-69
2023/08/22 10:52:07;;;;;;;;;;;22.80;66.10;;;;;;5052093;28;2098;-69
2023/08/22 10:54:52;;;;;;;;;;;22.80;66.80;;;;;;5052937;28;1483;-68
2023/08/22 10:57:18;;;;;;;;;;;22.80;66.90;;;;;;5052824;28;1487;-69
2023/08/22 11:00:17;;;;;;;;;;;22.80;66.80;;;;;;5044379;28;1313;-68
2023/08/22 11:02:42;;;;;;;;;;;22.80;65.80;;;;;;5030284;28;1420;-69
2023/08/22 11:05:11;;;;;;;;;;;22.80;65.80;;;;;;5052940;28;1498;-68
2023/08/22 11:07:41;;;;;;;;;;;22.80;65.00;;;;;;5044219;28;1886;-69
2023/08/22 11:10:07;;;;;;;;;;;22.80;64.50;;;;;;5051439;28;1293;-69
2023/08/22 11:12:32;;;;;;;;;;;22.80;65.80;;;;;;5052871;28;870;-69
2023/08/22 11:14:58;;;;;;;;;;;22.80;66.80;;;;;;5052031;28;1175;-69
2023/08/22 11:17:24;;;;;;;;;;;22.80;66.70;;;;;;5053765;28;857;-69
2023/08/22 11:19:49;;;;;;;;;;;22.80;66.80;;;;;;5052718;28;1354;-68
2023/08/22 11:22:15;;;;;;;;;;;22.80;66.50;;;;;;5046064;28;1379;-69
2023/08/22 11:24:41;;;;;;;;;;;22.80;65.90;;;;;;5045042;28;882;-69
2023/08/22 11:27:06;;;;;;;;;;;22.80;66.40;;;;;;5052694;28;1320;-69
2023/08/22 11:29:45;;;;;;;;;;;22.80;67.10;;;;;;5051885;28;1973;-68
2023/08/22 11:32:23;;;;;;;;;;;22.80;67.50;;;;;;5034252;28;1235;-69
2023/08/22 11:34:48;;;;;;;;;;;22.80;67.40;;;;;;5051851;28;849;-68
2023/08/22 11:37:14;;;;;;;;;;;22.80;67.80;;;;;;5052683;28;903;-68
2023/08/22 11:39:40;;;;;;;;;;;22.80;67.40;;;;;;5047837;28;1411;-69
2023/08/22 11:42:05;;;;;;;;;;;22.80;67.50;;;;;;5052397;28;1010;-68
2023/08/22 11:44:31;;;;;;;;;;;22.70;67.70;;;;;;5052336;28;895;-69
2023/08/22 11:46:57;;;;;;;;;;;22.80;67.90;;;;;;5046284;28;1322;-68
2023/08/22 11:49:22;;;;;;;;;;;22.80;67.50;;;;;;5051255;28;1894;-68
2023/08/22 11:51:52;;;;;;;;;;;22.70;67.30;;;;;;5052100;28;843;-68
2023/08/22 11:54:27;;;;;;;;;;;22.70;67.70;;;;;;5051712;28;1025;-68
2023/08/22 11:56:56;;;;;;;;;;;22.70;67.70;;;;;;5043832;28;894;-68
2023/08/22 11:59:22;;;;;;;;;;;22.70;67.60;;;;;;5045675;28;1520;-69
2023/08/22 12:01:48;;;;;;;;;;;22.70;67.90;;;;;;5049700;28;962;-68
2023/08/22 12:04:13;;;;;;;;;;;22.70;68.50;;;;;;5051760;28;922;-69
2023/08/22 12:06:38;;;;;;;;;;;22.70;67.70;;;;;;5051810;28;1001;-68
2023/08/22 12:09:04;;;;;;;;;;;22.70;67.90;;;;;;5046877;28;1967;-68
2023/08/22 12:11:29;;;;;;;;;;;22.70;67.90;;;;;;5058029;28;899;-68
2023/08/22 12:13:55;;;;;;;;;;;22.70;66.10;;;;;;5051759;28;832;-69
2023/08/22 12:16:20;;;;;;;;;;;22.80;65.80;;;;;;5051689;28;849;-68
2023/08/22 12:18:46;;;;;;;;;;;22.80;65.70;;;;;;5050985;28;1308;-68
2023/08/22 12:21:14;;;;;;;;;;;22.80;66.30;;;;;;5041601;28;2258;-69
2023/08/22 12:23:39;;;;;;;;;;;22.80;66.80;;;;;;5049362;28;2141;-68
2023/08/22 12:26:05;;;;;;;;;;;22.80;66.80;;;;;;5050481;28;1359;-69
2023/08/22 12:28:30;;;;;;;;;;;22.80;67.40;;;;;;5050419;28;1914;-68
2023/08/22 12:30:56;;;;;;;;;;;22.80;67.20;;;;;;5051664;28;942;-68
2023/08/22 12:33:22;;;;;;;;;;;22.80;67.80;;;;;;5051456;28;824;-68
2023/08/22 12:35:47;;;;;;;;;;;22.80;67.50;;;;;;5051515;28;1211;-68
2023/08/22 12:38:13;;;;;;;;;;;22.80;67.80;;;;;;5050688;28;1223;-69
2023/08/22 12:40:39;;;;;;;;;;;22.80;67.10;;;;;;5050419;28;816;-68
2023/08/22 12:43:05;;;;;;;;;;;22.80;67.40;;;;;;5051041;28;916;-68
2023/08/22 12:45:31;;;;;;;;;;;22.80;67.40;;;;;;5051369;28;831;-68
2023/08/22 12:47:56;;;;;;;;;;;22.70;67.30;;;;;;5050674;28;2036;-69
2023/08/22 12:50:23;;;;;;;;;;;22.80;67.70;;;;;;5051060;28;822;-68
2023/08/22 12:52:49;;;;;;;;;;;22.80;66.90;;;;;;5050144;28;2163;-69
2023/08/22 12:55:17;;;;;;;;;;;22.80;67.10;;;;;;5050920;28;1076;-69
2023/08/22 12:57:42;;;;;;;;;;;22.70;67.60;;;;;;5050375;28;1310;-68
2023/08/22 13:00:08;;;;;;;;;;;22.70;67.50;;;;;;5050838;28;1285;-68
2023/08/22 13:02:35;;;;;;;;;;;22.70;67.50;;;;;;5044081;28;974;-68
2023/08/22 13:05:01;;;;;;;;;;;22.70;67.80;;;;;;5050777;28;926;-69
2023/08/22 13:07:27;;;;;;;;;;;22.70;67.80;;;;;;5050885;28;857;-68
2023/08/22 13:09:52;;;;;;;;;;;22.80;67.80;;;;;;5049889;28;1902;-69
2023/08/22 13:12:17;;;;;;;;;;;22.70;67.70;;;;;;5051490;28;1293;-69
2023/08/22 13:14:43;;;;;;;;;;;22.80;68.00;;;;;;5045534;28;947;-68
2023/08/22 13:17:08;;;;;;;;;;;22.80;68.10;;;;;;5041626;28;844;-71
2023/08/22 13:19:34;;;;;;;;;;;22.80;67.80;;;;;;5050510;28;1357;-70
2023/08/22 13:21:59;;;;;;;;;;;22.80;66.80;;;;;;5051242;28;867;-71
2023/08/22 13:24:25;;;;;;;;;;;22.80;65.90;;;;;;5049373;28;1211;-70
2023/08/22 13:26:50;;;;;;;;;;;22.80;65.40;;;;;;5050275;28;1281;-68
2023/08/22 13:29:16;;;;;;;;;;;22.80;66.90;;;;;;5049245;28;1955;-68
2023/08/22 13:31:41;;;;;;;;;;;22.80;67.30;;;;;;5050384;28;999;-69
2023/08/22 13:34:07;;;;;;;;;;;22.80;67.00;;;;;;5049676;28;1411;-69
2023/08/22 13:36:32;;;;;;;;;;;22.80;67.20;;;;;;5050013;28;879;-69
2023/08/22 13:38:58;;;;;;;;;;;22.80;67.40;;;;;;5049803;28;1232;-69
2023/08/22 13:41:24;;;;;;;;;;;22.80;67.40;;;;;;5043367;28;843;-69
2023/08/22 13:43:49;;;;;;;;;;;22.80;67.20;;;;;;5049199;28;1351;-69
2023/08/22 13:46:15;;;;;;;;;;;22.80;67.20;;;;;;5046083;28;962;-69
2023/08/22 13:48:40;;;;;;;;;;;22.80;67.20;;;;;;5049462;28;1903;-69
2023/08/22 13:51:05;;;;;;;;;;;22.80;67.50;;;;;;5050014;28;1006;-69
2023/08/22 13:53:31;;;;;;;;;;;22.80;67.50;;;;;;5049534;28;850;-69
2023/08/22 13:55:57;;;;;;;;;;;22.80;67.50;;;;;;5049999;28;817;-69
2023/08/22 13:58:22;;;;;;;;;;;22.80;67.90;;;;;;5048665;28;1214;-69
2023/08/22 14:00:48;;;;;;;;;;;22.80;67.60;;;;;;5051315;28;1310;-68
2023/08/22 14:03:13;;;;;;;;;;;22.80;67.60;;;;;;5050023;28;877;-69
2023/08/22 14:05:39;;;;;;;;;;;22.80;67.50;;;;;;5050109;28;821;-68
2023/08/22 14:08:05;;;;;;;;;;;22.70;67.60;;;;;;5048812;28;1910;-69
2023/08/22 14:10:31;;;;;;;;;;;22.70;67.50;;;;;;5049804;28;1192;-70
2023/08/22 14:12:56;;;;;;;;;;;22.70;67.30;;;;;;5049968;28;878;-68
2023/08/22 14:15:22;;;;;;;;;;;22.70;67.70;;;;;;5031299;28;1385;-68
2023/08/22 14:17:47;;;;;;;;;;;22.70;67.30;;;;;;5052036;28;1268;-69
2023/08/22 14:20:12;;;;;;;;;;;22.70;67.30;;;;;;5053862;28;983;-68
2023/08/22 14:22:38;;;;;;;;;;;22.70;67.20;;;;;;5053668;28;855;-68
2023/08/22 14:25:04;;;;;;;;;;;22.70;67.30;;;;;;5053713;28;896;-68
2023/08/22 14:27:29;;;;;;;;;;;22.70;67.30;;;;;;5053909;28;869;-67
2023/08/22 14:29:55;;;;;;;;;;;22.70;67.30;;;;;;5052614;28;1906;-67